Ben Gurion International Airport


Codes: LLBG/TLV
Name: Ben Gurion International Airport
City: Tel Aviv
Country: Israel
Elevation: 135 ft.
Website:
Wikipedia:

Photos at Ben Gurion International Airport


   Photos courtesy of SpottingLog. You can add your own sightings and photos by signing up for a free trial today.



SP-RSN, 25-May-2019
© Adi Sagi

OO-SNJ, 25-May-2019
© Adi Sagi

TC-LER, 25-May-2019
© Adi Sagi

D-AIDO, 25-May-2019
© Adi Sagi

4X-AGH, 25-May-2019
© Adi Sagi

G-STBD, 25-May-2019
© Adi Sagi

F-HEPG, 25-May-2019
© Adi Sagi

D-AIDK, 25-May-2019
© Adi Sagi

VQ-BAG, 25-May-2019
© Adi Sagi

OE-LBO, 25-May-2019
© Adi Sagi

TC-JLU, 25-May-2019
© Adi Sagi

HB-JNI, 25-May-2019
© Adi Sagi


Weather at Ben Gurion International Airport


Time (UTC)DescriptionTempratureWindCloud coverageVisibilityPressureHumidity
26-Jun-2024 00:00Clear Sky25°C2 mph, SE0%10000m1006hPa72%
26-Jun-2024 03:00Clear Sky24°C2 mph, S0%10000m1006hPa75%
26-Jun-2024 06:00Clear Sky27°C4 mph, SW0%10000m1007hPa61%
26-Jun-2024 09:00Clear Sky31°C11 mph, W0%10000m1006hPa48%
26-Jun-2024 12:00Clear Sky31°C11 mph, NW0%10000m1005hPa46%
26-Jun-2024 15:00Clear Sky30°C9 mph, NW0%10000m1005hPa51%
26-Jun-2024 18:00Clear Sky27°C4 mph, NW0%10000m1005hPa68%
26-Jun-2024 21:00Clear Sky26°C2 mph, W0%10000m1006hPa78%
27-Jun-2024 00:00Clear Sky25°C2 mph, S0%10000m1005hPa82%
27-Jun-2024 03:00Clear Sky24°C4 mph, S5%10000m1005hPa83%
27-Jun-2024 06:00Clear Sky27°C4 mph, SW5%10000m1006hPa70%
27-Jun-2024 09:00Clear Sky31°C9 mph, W1%10000m1005hPa56%
27-Jun-2024 12:00Clear Sky31°C11 mph, NW0%10000m1005hPa54%
27-Jun-2024 15:00Clear Sky30°C9 mph, NW0%10000m1004hPa58%
27-Jun-2024 18:00Clear Sky28°C4 mph, NW0%10000m1006hPa71%
27-Jun-2024 21:00Clear Sky26°C2 mph, SW0%10000m1006hPa78%
28-Jun-2024 00:00Clear Sky25°C2 mph, SW0%10000m1005hPa82%
28-Jun-2024 03:00Clear Sky24°C4 mph, S0%10000m1006hPa84%
28-Jun-2024 06:00Clear Sky28°C7 mph, SW0%10000m1006hPa63%
28-Jun-2024 09:00Clear Sky32°C11 mph, W0%10000m1005hPa45%
28-Jun-2024 12:00Clear Sky32°C11 mph, W0%10000m1005hPa48%
28-Jun-2024 15:00Clear Sky30°C9 mph, NW0%10000m1004hPa57%
28-Jun-2024 18:00Clear Sky27°C4 mph, NW0%10000m1005hPa75%
28-Jun-2024 21:00Clear Sky26°C4 mph, S0%10000m1005hPa81%
29-Jun-2024 00:00Clear Sky25°C7 mph, S0%10000m1005hPa84%
29-Jun-2024 03:00Clear Sky25°C4 mph, S8%10000m1005hPa84%
29-Jun-2024 06:00Clear Sky28°C4 mph, SW10%10000m1005hPa66%
29-Jun-2024 09:00Clear Sky32°C11 mph, W0%10000m1005hPa47%
29-Jun-2024 12:00Clear Sky31°C11 mph, W0%10000m1004hPa50%
29-Jun-2024 15:00Clear Sky30°C9 mph, NW0%10000m1004hPa55%
29-Jun-2024 18:00Clear Sky27°C4 mph, N0%10000m1004hPa69%
29-Jun-2024 21:00Clear Sky26°C2 mph, W0%10000m1005hPa75%
30-Jun-2024 00:00Clear Sky25°C4 mph, SW0%10000m1004hPa80%
30-Jun-2024 03:00Few Clouds24°C4 mph, S20%10000m1005hPa80%
30-Jun-2024 06:00Few Clouds27°C7 mph, SW22%10000m1006hPa64%
30-Jun-2024 09:00Clear Sky31°C11 mph, W0%10000m1005hPa49%
30-Jun-2024 12:00Clear Sky31°C11 mph, W0%10000m1005hPa51%
30-Jun-2024 15:00Clear Sky29°C9 mph, NW0%10000m1004hPa57%
30-Jun-2024 18:00Clear Sky27°C4 mph, NW0%10000m1005hPa70%
30-Jun-2024 21:00Clear Sky25°C2 mph, SW0%10000m1005hPa76%